Skip to main content.

Nearby METAR Reports

 

KJYR - York, Nebraska, USA
Distance from station: NW 27mi, 43km
Updated: Mon, 30-Jan-2023 2:15pm CST
Partly Cloudy
Partly Cloudy
 Wind from NW
Wind: NW 6 mph , 9 km/h
Temperature: 10°F , -12°C
Wind Chill: 0°F , -18°C
Dew Point: -0°F , -18°C
Humidity: 61%
Barometer: 30.42 inHg , 1030.1 hPa
Clouds: Partly Cloudy
Visibility: 10 miles , 16 km
Cloud details: Few Clouds 1900 ft
Partly Cloudy 2700 ft
Partly Cloudy 6500 ft
2023/01/30 20:15 KJYR 302015Z AUTO 32005KT 10SM FEW019 SCT027 SCT065 M12/M18 A3042 RMK AO2
KLNK - Lincoln, Nebraska, USA
Distance from station: ENE 27mi, 44km
Updated: Mon, 30-Jan-2023 1:54pm CST
Overcast
Overcast
 Wind from NNW
Wind: NNW 8 mph , 13 km/h
Temperature: 14°F , -10°C
Wind Chill: 3°F , -16°C
Dew Point: -2°F , -19°C
Humidity: 48%
Barometer: 30.48 inHg , 1032.2 hPa
Clouds: Overcast
Visibility: 10 miles , 16 km
Cloud details: Overcast 7000 ft
2023/01/30 19:54 KLNK 301954Z 33007KT 10SM OVC070 M10/M19 A3048 RMK AO2 SLP345 T11001194
 
KBIE - Beatrice Municip, Nebraska, USA
Distance from station: SE 36mi, 58km
Updated: Mon, 30-Jan-2023 2:15pm CST
Overcast
Overcast
 Wind from NNE
Wind: NNE 3 mph , 6 km/h
Temperature: 14°F , -10°C
Dew Point: -2°F , -19°C
Humidity: 48%
Barometer: 30.44 inHg , 1030.8 hPa
Clouds: Overcast
Visibility: 10 miles , 16 km
Cloud details: Overcast 6000 ft
2023/01/30 20:15 KBIE 302015Z AUTO 02003KT 10SM OVC060 M10/M19 A3044 RMK AO2 T11001191
KHJH - Hebron Muni, Nebraska, USA
Distance from station: SSW 40mi, 64km
Updated: Mon, 30-Jan-2023 2:15pm CST
Overcast
Overcast
 Wind from NNE
Wind: NNE 3 mph , 6 km/h
Temperature: 12°F , -11°C
Dew Point: -0°F , -18°C
Humidity: 57%
Barometer: 30.44 inHg , 1030.8 hPa
Clouds: Overcast
Visibility: 10 miles , 16 km
Cloud details: Partly Cloudy 3000 ft
Overcast 6000 ft
2023/01/30 20:15 KHJH 302015Z AUTO 03003KT 10SM SCT030 OVC060 M11/M18 A3044 RMK AO2 T11101182
 
KAUH - Aurora, Nebraska, USA
Distance from station: WNW 44mi, 70km
Updated: Mon, 30-Jan-2023 2:15pm CST
Clear
Clear
 Wind from calm
Wind: Calm
Temperature: 9°F , -13°C
Dew Point: -0°F , -18°C
Humidity: 66%
Barometer: 30.41 inHg , 1029.8 hPa
Clouds: Clear
Visibility: 10 miles , 16 km
2023/01/30 20:15 KAUH 302015Z AUTO 00000KT 10SM CLR M13/M18 A3041 RMK AO2 T11261184
KAHQ - Wahoo, Nebraska, USA
Distance from station: NE 51mi, 82km
Updated: Mon, 30-Jan-2023 2:15pm CST

 Wind from N
Wind: N 7 mph , 11 km/h
Temperature: 10°F , -12°C
Wind Chill: -1°F , -18°C
Dew Point: -2°F , -19°C
Humidity: 56%
Barometer: 30.47 inHg , 1031.8 hPa
Visibility: 10 miles , 16 km
2023/01/30 20:15 KAHQ 302015Z AUTO 01006KT 10SM M12/M19 A3047 RMK AO2 T11181188
 
KOLU - Columbus Muni, Nebraska, USA
Distance from station: N 55mi, 88km
Updated: Mon, 30-Jan-2023 1:56pm CST
Clear
Clear
 Wind from NNE
Wind: NNE 5 mph , 7 km/h
Temperature: 10°F , -12°C
Wind Chill: 1°F , -17°C
Dew Point: -2°F , -19°C
Humidity: 56%
Barometer: 30.47 inHg , 1031.8 hPa
Clouds: Clear
Visibility: 10 miles , 16 km
2023/01/30 19:56 KOLU 301956Z AUTO 03004KT 10SM CLR M12/M19 A3047 RMK AO2 SLP352 T11221194 FZRANO
KGRI - Grand Island, Nebraska, USA
Distance from station: WNW 61mi, 99km
Updated: Mon, 30-Jan-2023 1:53pm CST
Clear
Clear
 Wind from calm
Wind: Calm
Temperature: 12°F , -11°C
Dew Point: -2°F , -19°C
Humidity: 52%
Barometer: 30.41 inHg , 1029.8 hPa
Clouds: Clear
Visibility: 10 miles , 16 km
2023/01/30 19:53 KGRI 301953Z 00000KT 10SM CLR M11/M19 A3041 RMK AO2 SLP344 T11111194
 
KHSI - Hastings, Nebraska, USA
Distance from station: W 64mi, 103km
Updated: Mon, 30-Jan-2023 1:53pm CST
Overcast
Overcast
 Wind from WNW
Wind: WNW 5 mph , 7 km/h
Temperature: 10°F , -12°C
Wind Chill: 1°F , -17°C
Dew Point: -0°F , -18°C
Humidity: 61%
Barometer: 30.40 inHg , 1029.5 hPa
Clouds: Overcast
Visibility: 10 miles , 16 km
Cloud details: Overcast 6000 ft
2023/01/30 19:53 KHSI 301953Z AUTO 30004KT 10SM OVC060 M12/M18 A3040 RMK AO2 SLP338 T11221178
KFET - Fremont Muni Arp, Nebraska, USA
Distance from station: NNE 66mi, 106km
Updated: Mon, 30-Jan-2023 2:15pm CST
Clear
Clear
 Wind from N
Wind: N 6 mph , 9 km/h
Temperature: 9°F , -13°C
Wind Chill: -1°F , -18°C
Dew Point: -4°F , -20°C
Humidity: 56%
Barometer: 30.48 inHg , 1032.2 hPa
Clouds: Clear
Visibility: 10 miles , 16 km
2023/01/30 20:15 KFET 302015Z AUTO 36005KT 10SM CLR M13/M20 A3048 RMK AO2 T11321205
 
KMLE - Omaha/Millard, Nebraska, USA
Distance from station: NE 69mi, 110km
Updated: Mon, 30-Jan-2023 2:15pm CST
Partly Cloudy
Partly Cloudy
 Wind from NNW
Wind: NNW 10 mph , 17 km/h
Temperature: 12°F , -11°C
Wind Chill: -1°F , -18°C
Dew Point: 1°F , -17°C
Humidity: 62%
Barometer: 30.48 inHg , 1032.2 hPa
Clouds: Partly Cloudy
Visibility: 10 miles , 16 km
Cloud details: Partly Cloudy 2700 ft
2023/01/30 20:15 KMLE 302015Z AUTO 33009KT 280V360 10SM SCT027 M11/M17 A3048 RMK AO2 T11061175
KPMV - Plattsmouth Muni, Nebraska, USA
Distance from station: ENE 71mi, 114km
Updated: Mon, 30-Jan-2023 2:15pm CST
Overcast
Overcast
 Wind from NW
Wind: NW 7 mph , 11 km/h
Temperature: 14°F , -10°C
Wind Chill: 4°F , -16°C
Dew Point: -2°F , -19°C
Humidity: 48%
Barometer: 30.46 inHg , 1031.5 hPa
Clouds: Overcast
Visibility: 10 miles , 16 km
Cloud details: Overcast 7000 ft
2023/01/30 20:15 KPMV 302015Z AUTO 32006KT 10SM OVC070 M10/M19 A3046 RMK AO2 T11041192
 
KAFK - Nebraska City, Nebraska, USA
Distance from station: E 72mi, 116km
Updated: Mon, 30-Jan-2023 2:15pm CST
Overcast
Overcast
 Wind from N
Wind: N 6 mph , 9 km/h
Temperature: 14°F , -10°C
Wind Chill: 5°F , -15°C
Dew Point: -4°F , -20°C
Humidity: 44%
Barometer: 30.46 inHg , 1031.5 hPa
Clouds: Overcast
Visibility: 10 miles , 16 km
Cloud details: Overcast 7000 ft
2023/01/30 20:15 KAFK 302015Z AUTO 36005KT 10SM OVC070 M10/M20 A3046 RMK AO2 T11021204
KOFF - Offutt Afb/Belle, Nebraska, USA
Distance from station: ENE 75mi, 121km
Updated: Mon, 30-Jan-2023 1:55pm CST
Overcast
Overcast
 Wind from NW
Wind: NW 13 mph , 20 km/h
Temperature: 14°F , -10°C
Wind Chill: -0°F , -18°C
Dew Point: -4°F , -20°C
Humidity: 44%
Barometer: 30.50 inHg , 1032.8 hPa
Clouds: Overcast
Visibility: 10 miles , 16 km
Cloud details: Overcast 7000 ft
2023/01/30 19:55 KOFF 301955Z AUTO 32011KT 10SM OVC070 M10/M20 A3050 RMK AO2 SLP357 T11021204 PWINO PNO FZRANO TSNO $
 
KBTA - Blair Muni, Nebraska, USA
Distance from station: NE 78mi, 125km
Updated: Mon, 30-Jan-2023 2:15pm CST
Clear
Clear
 Wind from NW
Wind: NW 6 mph , 9 km/h
Temperature: 9°F , -13°C
Wind Chill: -1°F , -18°C
Dew Point: -4°F , -20°C
Humidity: 56%
Barometer: 30.45 inHg , 1031.2 hPa
Clouds: Clear
Visibility: 10 miles , 16 km
2023/01/30 20:15 KBTA 302015Z AUTO 32005KT 10SM CLR M13/M20 A3045 RMK AO2 T11311200
KCNK - Concordia, Kansas, USA
Distance from station: SSW 80mi, 129km
Updated: Mon, 30-Jan-2023 1:55pm CST
Overcast
Overcast
 Wind from NE
Wind: NE 6 mph , 9 km/h
Temperature: 14°F , -10°C
Wind Chill: 5°F , -15°C
Dew Point: 1°F , -17°C
Humidity: 57%
Barometer: 30.43 inHg , 1030.5 hPa
Clouds: Overcast
Visibility: 10 miles , 16 km
Cloud details: Few Clouds 2700 ft
Overcast 5500 ft
2023/01/30 19:55 KCNK 301955Z AUTO 05005KT 10SM FEW027 OVC055 M10/M17 A3043 RMK AO2 UPB04E13 SLP332 P0000 T11001172
 
KOMA - Omaha/Eppley, Nebraska, USA
Distance from station: NE 82mi, 133km
Updated: Mon, 30-Jan-2023 1:52pm CST
Partly Cloudy
Partly Cloudy
 Wind from N
Wind: N 14 mph , 22 km/h
Temperature: 10°F , -12°C
Wind Chill: -6°F , -21°C
Dew Point: 1°F , -17°C
Humidity: 67%
Barometer: 30.48 inHg , 1032.2 hPa
Clouds: Partly Cloudy
Visibility: 10 miles , 16 km
Cloud details: Few Clouds 2000 ft
Few Clouds 7000 ft
Partly Cloudy 25000 ft
2023/01/30 19:52 KOMA 301952Z 01012KT 10SM FEW020 FEW070 SCT250 M12/M17 A3048 RMK AO2 SLP344 T11171167
KBVN - Albion Muni, Nebraska, USA
Distance from station: NNW 86mi, 138km
Updated: Mon, 30-Jan-2023 2:15pm CST
Mostly Cloudy
Mostly Cloudy
 Wind from calm
Wind: Calm
Temperature: 7°F , -14°C
Dew Point: -6°F , -21°C
Humidity: 56%
Barometer: 30.41 inHg , 1029.8 hPa
Clouds: Mostly Cloudy
Visibility: 10 miles , 16 km
Cloud details: Mostly Cloudy 7000 ft
2023/01/30 20:15 KBVN 302015Z AUTO 00000KT 10SM BKN070 M14/M21 A3041 RMK AO2 T11401215
 
KCBF - Council Bluffs, Iowa, USA
Distance from station: ENE 87mi, 139km
Updated: Mon, 30-Jan-2023 2:15pm CST
Mostly Cloudy
Mostly Cloudy
 Wind from N
Wind: N 12 mph , 19 km/h
Temperature: 10°F , -12°C
Wind Chill: -5°F , -21°C
Dew Point: -4°F , -20°C
Humidity: 52%
Barometer: 30.44 inHg , 1030.8 hPa
Clouds: Mostly Cloudy
Visibility: 10 miles , 16 km
Cloud details: Mostly Cloudy 6500 ft
2023/01/30 20:15 KCBF 302015Z AUTO 36010KT 10SM BKN065 M12/M20 A3044 RMK AO2
KOFK - Norfolk, Nebraska, USA
Distance from station: N 92mi, 148km
Updated: Mon, 30-Jan-2023 1:56pm CST
Overcast
Overcast
 Wind from NW
Wind: NW 6 mph , 9 km/h
Temperature: 7°F , -14°C
Wind Chill: -4°F , -20°C
Dew Point: -9°F , -23°C
Humidity: 47%
Barometer: 30.43 inHg , 1030.5 hPa
Clouds: Overcast
Visibility: 10 miles , 16 km
Cloud details: Overcast 7500 ft
2023/01/30 19:56 KOFK 301956Z AUTO 32005KT 10SM OVC075 M14/M23 A3043 RMK AO2 SLP344 T11391228

Metar display script from Saratoga-Weather.org